createdAt,value
2023-03-06T01:10:25.063Z,11.21
2023-03-06T01:11:41.090Z,11.24
2023-03-06T01:12:24.854Z,11.21
2023-03-06T01:13:25.051Z,11.21
2023-03-06T01:14:24.825Z,11.20
2023-03-06T01:16:46.051Z,11.11
2023-03-06T01:17:45.705Z,11.10
2023-03-06T01:20:37.917Z,11.08
2023-03-06T01:21:37.910Z,11.06
2023-03-06T01:30:58.800Z,10.97
2023-03-06T01:34:10.464Z,10.99
2023-03-06T01:35:26.100Z,10.97
2023-03-06T01:36:10.035Z,10.99
2023-03-06T01:37:09.850Z,10.97
2023-03-06T01:38:10.721Z,10.99
2023-03-06T01:39:11.790Z,11.00
2023-03-06T04:59:31.644Z,9.92
2023-03-06T05:06:31.645Z,9.91
2023-03-06T05:07:31.581Z,9.88
2023-03-06T05:13:31.637Z,9.89
2023-03-06T05:53:31.693Z,9.59
2023-03-06T06:01:31.489Z,9.58
2023-03-06T06:08:52.065Z,9.62
2023-03-06T06:09:55.498Z,9.64
2023-03-06T06:10:55.680Z,9.66
2023-03-06T06:11:55.430Z,9.65
2023-03-06T06:12:55.450Z,9.68
2023-03-06T06:13:55.427Z,9.68
2023-03-06T06:14:55.389Z,9.70
2023-03-06T06:15:55.385Z,9.74
2023-03-06T06:16:55.431Z,9.73
2023-03-06T06:17:55.318Z,9.77
2023-03-06T06:18:55.327Z,9.80
2023-03-06T06:19:55.360Z,9.81
2023-03-06T06:20:56.088Z,9.84
2023-03-06T06:21:55.292Z,9.85
2023-03-06T06:22:55.276Z,9.85
2023-03-06T06:23:55.288Z,9.86
2023-03-06T06:24:55.270Z,9.84
2023-03-06T06:25:55.267Z,9.85
2023-03-06T06:26:55.265Z,9.85
2023-03-06T06:27:55.351Z,9.88
2023-03-06T06:28:56.446Z,9.91
2023-03-06T06:29:55.237Z,9.89
2023-03-06T06:30:55.258Z,9.92
2023-03-06T06:31:55.253Z,9.91
2023-03-06T06:32:55.251Z,9.94
2023-03-06T06:33:55.218Z,9.92
2023-03-06T06:34:55.228Z,9.94
2023-03-06T06:35:56.082Z,9.92
2023-03-06T06:36:55.230Z,9.96
2023-03-06T06:37:55.349Z,10.02
2023-03-06T06:38:55.355Z,10.08
2023-03-06T06:39:55.452Z,10.08
2023-03-06T06:41:30.651Z,10.10
2023-03-06T06:42:09.971Z,10.15
2023-03-06T06:42:56.504Z,10.18
2023-03-06T06:43:57.114Z,10.16
2023-03-06T06:44:55.488Z,10.19
2023-03-06T08:17:57.453Z,11.46
2023-03-06T08:18:57.380Z,11.52
2023-03-06T08:19:57.209Z,11.55
2023-03-06T08:20:57.109Z,11.57
2023-03-06T08:22:00.137Z,11.57
2023-03-06T08:55:11.904Z,12.71
2023-03-06T09:41:31.706Z,13.96
2023-03-06T10:31:23.846Z,16.31
2023-03-06T10:36:21.025Z,16.40
2023-03-06T10:37:21.111Z,16.29
2023-03-06T10:38:20.596Z,16.35
2023-03-06T10:39:20.575Z,16.47
2023-03-06T10:40:20.337Z,16.51
2023-03-06T10:41:19.972Z,16.58
2023-03-06T10:42:19.983Z,16.76
2023-03-06T10:43:19.931Z,16.78
2023-03-06T10:44:19.918Z,16.74
2023-03-06T10:45:20.129Z,16.80
2023-03-06T10:46:19.928Z,16.95
2023-03-06T10:48:41.674Z,17.23
2023-03-06T10:49:41.366Z,17.33
2023-03-06T10:50:39.727Z,17.23
2023-03-06T10:51:40.335Z,17.40
2023-03-06T10:52:39.423Z,17.44
2023-03-06T10:53:39.440Z,17.60
2023-03-06T10:54:39.605Z,17.77
2023-03-06T10:55:39.393Z,17.88
2023-03-06T10:56:39.466Z,17.94
2023-03-06T10:57:39.439Z,17.94
2023-03-06T10:58:39.422Z,17.97
2023-03-06T10:59:39.454Z,18.13
2023-03-06T11:00:39.362Z,18.25
2023-03-06T11:01:39.458Z,18.28
2023-03-06T11:02:39.388Z,18.21
2023-03-06T11:03:39.457Z,17.92
2023-03-06T11:04:39.519Z,17.95
2023-03-06T11:05:39.464Z,17.90
2023-03-06T11:06:39.464Z,18.08
2023-03-06T11:08:59.092Z,17.95
2023-03-06T11:11:31.613Z,18.16
2023-03-06T11:12:19.963Z,18.42
2023-03-06T11:13:21.382Z,18.52
2023-03-06T13:17:21.672Z,20.94
2023-03-06T13:18:22.025Z,21.05
2023-03-06T13:19:21.549Z,20.86
2023-03-06T13:20:21.710Z,20.93
2023-03-06T13:21:21.456Z,21.05
2023-03-06T13:22:21.556Z,21.17
2023-03-06T13:23:21.477Z,21.27
2023-03-06T13:24:21.445Z,21.15
2023-03-06T13:25:21.531Z,21.25
2023-03-06T13:26:21.491Z,21.25
2023-03-06T13:27:21.732Z,21.24
2023-03-06T13:28:21.436Z,21.21
2023-03-06T13:29:21.406Z,21.17
2023-03-06T13:30:21.381Z,21.17
2023-03-06T13:31:27.215Z,21.15
2023-03-06T13:33:21.411Z,21.05
2023-03-06T13:34:21.395Z,20.89
2023-03-06T13:35:21.578Z,20.91
2023-03-06T13:36:21.445Z,21.01
2023-03-06T13:37:21.377Z,20.93
2023-03-06T13:38:21.369Z,20.87
2023-03-06T13:39:21.456Z,20.80
2023-03-06T13:40:21.624Z,20.77
2023-03-06T13:41:21.454Z,20.79
2023-03-06T13:42:21.404Z,20.73
2023-03-06T13:43:21.511Z,20.59
2023-03-06T13:45:41.230Z,20.37
2023-03-06T13:46:40.878Z,20.36
2023-03-06T13:48:06.450Z,20.33
2023-03-06T13:48:45.121Z,20.40
2023-03-06T13:49:40.744Z,20.33
2023-03-06T13:50:40.765Z,20.40
2023-03-06T13:51:40.686Z,20.29
2023-03-06T13:52:40.884Z,20.22
2023-03-06T13:53:40.857Z,20.04
2023-03-06T13:54:40.795Z,19.93
2023-03-06T13:55:40.917Z,19.88
2023-03-06T13:56:40.687Z,19.77
2023-03-06T13:57:40.877Z,19.77
2023-03-06T13:58:40.983Z,19.78
2023-03-06T13:59:40.761Z,19.68
2023-03-06T14:00:40.761Z,19.71
2023-03-06T14:01:40.926Z,19.67
2023-03-06T14:02:40.762Z,19.67
2023-03-06T14:03:40.803Z,19.57
2023-03-06T14:04:40.769Z,19.35
2023-03-06T14:05:40.967Z,19.21
2023-03-06T14:06:40.875Z,19.16
2023-03-06T14:07:40.964Z,18.99
2023-03-06T14:08:40.964Z,18.90
2023-03-06T14:09:40.976Z,18.84
2023-03-06T14:10:41.015Z,18.84
2023-03-06T14:11:41.033Z,18.60
2023-03-06T14:12:41.112Z,18.38
2023-03-06T14:13:47.200Z,18.29
2023-03-06T14:16:01.289Z,17.97
2023-03-06T14:17:00.830Z,17.88
2023-03-06T14:18:01.130Z,17.70
2023-03-06T14:19:00.655Z,17.68
2023-03-06T14:20:00.877Z,17.54
2023-03-06T14:21:00.733Z,17.53
2023-03-06T14:22:00.851Z,17.53
2023-03-06T14:23:01.588Z,17.51
2023-03-06T14:24:00.914Z,17.47
2023-03-06T14:25:00.602Z,17.53
2023-03-06T14:26:00.580Z,17.60
2023-03-06T14:27:00.575Z,17.63
2023-03-06T14:28:09.133Z,17.56
2023-03-06T14:29:01.812Z,17.60
2023-03-06T14:30:00.560Z,17.60
2023-03-06T14:31:00.718Z,17.64
2023-03-06T14:32:00.801Z,17.48
2023-03-06T14:33:00.530Z,17.48
2023-03-06T14:34:01.469Z,17.46
2023-03-06T14:35:00.588Z,17.37
2023-03-06T14:36:01.246Z,17.36
2023-03-06T14:52:19.926Z,16.38
2023-03-06T14:53:19.912Z,16.29
2023-03-06T14:54:19.934Z,16.24
2023-03-06T14:55:19.908Z,16.18
2023-03-06T14:56:19.917Z,16.17
2023-03-06T14:57:19.941Z,15.91
2023-03-06T14:58:19.914Z,15.84
2023-03-06T14:59:19.856Z,15.69
2023-03-06T15:00:19.988Z,15.39
2023-03-06T15:01:19.998Z,15.40
2023-03-06T15:02:20.001Z,15.33
2023-03-06T15:03:20.043Z,15.30
2023-03-06T15:04:20.090Z,15.25
2023-03-06T15:05:20.094Z,15.35
2023-03-06T15:06:20.155Z,15.28
2023-03-06T15:07:20.215Z,15.26
2023-03-06T15:08:20.174Z,15.13
2023-03-06T15:09:20.266Z,15.12
2023-03-06T15:10:20.307Z,15.15
2023-03-06T15:11:20.314Z,15.21
2023-03-06T15:12:20.353Z,15.25
2023-03-06T15:13:20.431Z,15.22
2023-03-06T15:14:20.431Z,15.12
2023-03-06T15:15:20.489Z,15.05
2023-03-06T15:16:20.542Z,15.02
2023-03-06T15:17:20.521Z,14.95
2023-03-06T15:18:20.561Z,14.71
2023-03-06T15:19:20.516Z,14.74
2023-03-06T15:20:20.584Z,14.81
2023-03-06T15:21:20.579Z,14.78
2023-03-06T15:22:20.589Z,14.84
2023-03-06T15:23:20.606Z,14.95
2023-03-06T15:24:21.135Z,14.67
2023-03-06T15:25:20.710Z,14.58
2023-03-06T15:26:20.716Z,14.51
2023-03-06T15:27:20.735Z,14.41
2023-03-06T15:28:20.746Z,14.44
2023-03-06T15:29:20.790Z,14.49
2023-03-06T15:31:20.925Z,14.21
2023-03-06T15:32:20.928Z,14.14
2023-03-06T15:33:21.097Z,14.07
2023-03-06T15:34:20.979Z,14.14
2023-03-06T15:35:20.983Z,14.21
2023-03-06T15:36:21.016Z,14.13
2023-03-06T15:37:20.985Z,14.17
2023-03-06T15:38:21.052Z,14.31
2023-03-06T15:44:21.090Z,14.33
2023-03-06T15:47:21.268Z,14.54
2023-03-06T15:49:21.278Z,14.52
2023-03-06T18:57:42.501Z,13.28
2023-03-06T18:58:42.533Z,13.28
2023-03-06T18:59:42.547Z,13.28
2023-03-06T19:00:42.494Z,13.26
2023-03-06T19:03:02.655Z,13.25
2023-03-06T19:04:03.080Z,13.25
2023-03-06T19:05:02.579Z,13.25
2023-03-06T19:06:02.564Z,13.22
2023-03-06T19:07:02.574Z,13.21
2023-03-06T19:08:02.543Z,13.21
2023-03-06T19:09:02.523Z,13.18
2023-03-06T19:10:02.565Z,13.19
2023-03-06T19:11:02.546Z,13.19
2023-03-06T19:12:02.510Z,13.17
2023-03-06T19:13:02.534Z,13.19
2023-03-06T19:14:02.525Z,13.09
2023-03-06T19:15:02.565Z,12.99
2023-03-06T19:16:02.535Z,12.99
2023-03-06T19:17:02.532Z,13.01
2023-03-06T19:18:02.477Z,13.02
2023-03-06T19:19:02.492Z,13.04
2023-03-06T19:20:02.505Z,13.02
2023-03-06T19:21:02.548Z,13.02
2023-03-06T19:22:02.528Z,13.01
2023-03-06T19:23:02.481Z,13.07
2023-03-06T19:24:02.439Z,13.05
2023-03-06T19:25:03.913Z,13.04
2023-03-06T19:26:02.449Z,12.99
2023-03-06T19:27:02.470Z,12.94
2023-03-06T19:28:02.423Z,12.91
2023-03-06T19:29:02.552Z,12.92
2023-03-06T19:30:02.447Z,12.84
2023-03-06T19:31:02.392Z,12.87
2023-03-06T19:32:02.504Z,12.84
2023-03-06T19:33:02.448Z,12.84
2023-03-06T19:34:02.365Z,12.84
2023-03-06T19:35:02.391Z,12.86
2023-03-06T19:53:21.996Z,12.84
2023-03-06T19:54:21.922Z,12.87
2023-03-06T19:55:22.031Z,12.91
2023-03-06T19:56:21.991Z,12.90
2023-03-06T19:57:21.975Z,12.94
2023-03-06T19:58:21.948Z,12.99
2023-03-06T19:59:21.965Z,12.97
2023-03-06T20:00:21.954Z,12.98
2023-03-06T20:01:22.115Z,12.97
2023-03-06T20:02:21.883Z,12.97
2023-03-06T20:03:21.908Z,12.98
2023-03-06T20:04:21.943Z,13.02
2023-03-06T20:05:21.921Z,13.05
2023-03-06T20:06:21.896Z,13.04
2023-03-06T20:07:22.003Z,13.04
2023-03-06T20:08:21.899Z,13.01
2023-03-06T21:47:41.532Z,12.80
2023-03-06T21:48:42.148Z,12.73
2023-03-06T21:50:41.455Z,12.73
2023-03-06T21:51:41.686Z,12.70
2023-03-06T21:52:41.290Z,12.68
2023-03-06T21:53:41.330Z,12.68
2023-03-06T21:54:41.666Z,12.66
2023-03-06T21:55:41.298Z,12.67
2023-03-06T21:56:41.281Z,12.63
2023-03-06T21:57:41.270Z,12.63
2023-03-06T21:58:41.250Z,12.61
2023-03-06T21:59:41.408Z,12.58
2023-03-06T22:01:41.652Z,12.58
2023-03-06T22:02:41.553Z,12.56
2023-03-06T22:03:41.285Z,12.51
2023-03-06T22:04:41.321Z,12.50
2023-03-06T22:05:41.442Z,12.50
2023-03-06T22:06:41.750Z,12.44
2023-03-06T22:07:42.183Z,12.44
2023-03-06T22:08:41.222Z,12.46
2023-03-06T22:09:41.221Z,12.41
2023-03-06T22:10:41.221Z,12.40
2023-03-06T22:11:41.194Z,12.41
2023-03-06T22:12:41.229Z,12.40
2023-03-06T22:13:41.199Z,12.37
2023-03-06T23:08:16.919Z,11.81
2023-03-06T23:09:16.901Z,11.82
2023-03-06T23:10:16.897Z,11.83
2023-03-06T23:11:16.905Z,11.83
2023-03-06T23:29:16.403Z,11.62
2023-03-06T23:30:16.328Z,11.58
2023-03-06T23:31:16.909Z,11.58
2023-03-06T23:32:16.367Z,11.57
2023-03-06T23:33:16.258Z,11.57
2023-03-06T23:34:16.223Z,11.55
2023-03-06T23:35:16.271Z,11.58
2023-03-06T23:36:16.311Z,11.57
2023-03-06T23:37:16.222Z,11.52
2023-03-06T23:38:16.214Z,11.52
2023-03-06T23:39:16.180Z,11.52
2023-03-06T23:40:16.213Z,11.52
2023-03-06T23:41:16.235Z,11.48
2023-03-06T23:42:16.192Z,11.48
2023-03-06T23:43:16.187Z,11.51
2023-03-06T23:44:16.143Z,11.48
2023-03-06T23:45:16.220Z,11.51
2023-03-06T23:46:16.237Z,11.52
2023-03-06T23:49:09.555Z,11.50
2023-03-06T23:50:09.719Z,11.50
